createdAt,value
2018-06-21T00:00:16.541Z,18.60
2018-06-21T00:01:16.550Z,18.57
2018-06-21T00:02:16.576Z,18.58
2018-06-21T00:03:16.605Z,18.60
2018-06-21T00:04:16.631Z,18.58
2018-06-21T00:05:16.654Z,18.64
2018-06-21T00:06:16.667Z,18.53
2018-06-21T00:07:16.692Z,18.49
2018-06-21T00:08:16.717Z,18.46
2018-06-21T00:09:16.748Z,18.49
2018-06-21T00:10:16.759Z,18.48
2018-06-21T00:11:16.784Z,18.39
2018-06-21T00:12:16.809Z,18.37
2018-06-21T00:13:16.853Z,18.41
2018-06-21T00:14:16.857Z,18.41
2018-06-21T00:15:16.878Z,18.37
2018-06-21T00:16:16.904Z,18.33
2018-06-21T00:17:16.931Z,18.34
2018-06-21T00:18:16.940Z,18.31
2018-06-21T00:19:16.968Z,18.36
2018-06-21T00:20:16.994Z,18.36
2018-06-21T00:21:17.016Z,18.27
2018-06-21T00:22:17.031Z,18.30
2018-06-21T00:23:17.058Z,18.43
2018-06-21T00:24:17.084Z,18.30
2018-06-21T00:25:17.115Z,18.18
2018-06-21T00:26:17.128Z,18.37
2018-06-21T00:27:17.147Z,18.27
2018-06-21T00:28:17.173Z,18.30
2018-06-21T00:29:17.244Z,18.30
2018-06-21T00:30:17.232Z,18.21
2018-06-21T00:31:17.244Z,18.15
2018-06-21T00:32:17.272Z,18.26
2018-06-21T00:33:17.292Z,18.26
2018-06-21T00:34:17.307Z,18.18
2018-06-21T00:35:17.335Z,18.15
2018-06-21T00:36:17.373Z,18.12
2018-06-21T00:37:17.383Z,18.13
2018-06-21T00:38:17.397Z,18.12
2018-06-21T00:39:17.421Z,18.11
2018-06-21T00:40:17.446Z,18.13
2018-06-21T00:41:17.478Z,18.15
2018-06-21T00:42:17.490Z,18.09
2018-06-21T00:43:17.526Z,18.11
2018-06-21T00:44:17.540Z,18.02
2018-06-21T00:45:17.569Z,18.02
2018-06-21T00:46:17.587Z,18.00
2018-06-21T00:47:17.608Z,17.97
2018-06-21T00:48:17.633Z,18.00
2018-06-21T00:49:17.655Z,18.02
2018-06-21T00:50:17.668Z,18.09
2018-06-21T00:51:17.700Z,18.00
2018-06-21T00:52:17.725Z,17.94
2018-06-21T00:53:17.748Z,17.98
2018-06-21T00:54:17.762Z,18.02
2018-06-21T00:55:17.785Z,18.00
2018-06-21T00:56:17.811Z,18.05
2018-06-21T00:57:17.844Z,17.97
2018-06-21T00:58:17.857Z,17.94
2018-06-21T00:59:17.880Z,17.95
2018-06-21T01:00:17.921Z,17.90
2018-06-21T01:01:17.934Z,17.88
2018-06-21T01:02:17.948Z,17.94
2018-06-21T01:03:17.972Z,17.91
2018-06-21T01:04:17.998Z,17.91
2018-06-21T01:05:18.010Z,17.88
2018-06-21T01:06:18.033Z,17.94
2018-06-21T01:07:18.063Z,17.91
2018-06-21T01:08:18.089Z,17.93
2018-06-21T01:09:18.099Z,17.88
2018-06-21T01:10:18.125Z,17.87
2018-06-21T01:11:18.152Z,17.84
2018-06-21T01:12:18.179Z,17.87
2018-06-21T01:13:18.209Z,17.84
2018-06-21T01:14:18.225Z,17.80
2018-06-21T01:15:18.242Z,17.84
2018-06-21T01:16:18.268Z,17.86
2018-06-21T01:17:18.286Z,17.80
2018-06-21T01:18:18.310Z,17.78
2018-06-21T01:19:18.340Z,17.86
2018-06-21T01:20:18.352Z,17.86
2018-06-21T01:21:18.374Z,17.80
2018-06-21T01:22:18.399Z,17.84
2018-06-21T01:23:18.430Z,17.78
2018-06-21T01:24:18.445Z,17.79
2018-06-21T01:25:18.519Z,17.79
2018-06-21T01:26:18.492Z,17.76
2018-06-21T01:27:18.503Z,17.84
2018-06-21T01:28:18.529Z,17.76
2018-06-21T01:29:18.558Z,17.78
2018-06-21T01:30:18.599Z,17.78
2018-06-21T01:31:18.596Z,17.71
2018-06-21T01:32:18.622Z,17.80
2018-06-21T01:33:18.653Z,17.75
2018-06-21T01:34:18.678Z,17.78
2018-06-21T01:35:18.689Z,17.75
2018-06-21T01:36:18.715Z,17.73
2018-06-21T01:37:18.736Z,17.68
2018-06-21T01:38:18.751Z,17.73
2018-06-21T01:39:18.780Z,17.72
2018-06-21T01:40:18.810Z,17.75
2018-06-21T01:41:18.829Z,17.80
2018-06-21T01:42:18.841Z,17.75
2018-06-21T01:43:18.869Z,17.60
2018-06-21T01:44:18.895Z,17.69
2018-06-21T01:45:18.926Z,17.65
2018-06-21T01:46:18.940Z,17.63
2018-06-21T01:47:18.962Z,17.59
2018-06-21T01:48:18.984Z,17.66
2018-06-21T01:49:19.006Z,17.60
2018-06-21T01:50:19.028Z,17.53
2018-06-21T01:51:19.056Z,17.63
2018-06-21T01:52:19.082Z,17.56
2018-06-21T01:53:19.091Z,17.59
2018-06-21T01:54:19.117Z,17.63
2018-06-21T01:55:19.144Z,17.57
2018-06-21T01:56:19.170Z,17.59
2018-06-21T01:57:19.187Z,17.56
2018-06-21T01:58:19.213Z,17.50
2018-06-21T01:59:19.236Z,17.60
2018-06-21T02:00:19.251Z,17.59
2018-06-21T02:01:19.272Z,17.54
2018-06-21T02:02:19.298Z,17.52
2018-06-21T02:03:19.320Z,17.53
2018-06-21T02:04:19.343Z,17.54
2018-06-21T02:05:19.364Z,17.53
2018-06-21T02:06:19.395Z,17.56
2018-06-21T02:07:19.402Z,17.53
2018-06-21T02:08:19.430Z,17.56
2018-06-21T02:09:19.458Z,17.56
2018-06-21T02:10:19.471Z,17.52
2018-06-21T02:11:19.494Z,17.56
2018-06-21T02:12:19.519Z,17.46
2018-06-21T02:13:19.549Z,17.56
2018-06-21T02:14:19.562Z,17.46
2018-06-21T02:15:19.591Z,17.54
2018-06-21T02:16:19.617Z,17.42
2018-06-21T02:17:19.626Z,17.54
2018-06-21T02:18:19.652Z,17.52
2018-06-21T02:19:19.680Z,17.50
2018-06-21T02:20:19.707Z,17.41
2018-06-21T02:21:19.715Z,17.42
2018-06-21T02:22:19.742Z,17.54
2018-06-21T02:23:19.769Z,17.49
2018-06-21T02:24:19.782Z,17.52
2018-06-21T02:25:19.813Z,17.53
2018-06-21T02:26:19.838Z,17.46
2018-06-21T02:27:19.860Z,17.42
2018-06-21T02:28:19.873Z,17.53
2018-06-21T02:29:19.903Z,17.53
2018-06-21T02:30:19.931Z,17.46
2018-06-21T02:31:19.940Z,17.50
2018-06-21T02:32:19.981Z,17.52
2018-06-21T02:33:19.992Z,17.50
2018-06-21T02:34:20.025Z,17.57
2018-06-21T02:35:20.036Z,17.52
2018-06-21T02:36:20.061Z,17.54
2018-06-21T02:37:20.083Z,17.56
2018-06-21T02:38:20.095Z,17.47
2018-06-21T02:39:20.139Z,17.56
2018-06-21T02:40:20.146Z,17.52
2018-06-21T02:41:20.175Z,17.50
2018-06-21T02:42:20.190Z,17.44
2018-06-21T02:43:20.214Z,17.49
2018-06-21T02:44:20.237Z,17.53
2018-06-21T02:45:20.256Z,17.46
2018-06-21T02:46:20.280Z,17.42
2018-06-21T02:47:20.309Z,17.38
2018-06-21T02:48:20.334Z,17.41
2018-06-21T02:49:20.347Z,17.39
2018-06-21T02:50:20.369Z,17.37
2018-06-21T02:51:20.399Z,17.38
2018-06-21T02:52:20.612Z,17.42
2018-06-21T02:53:20.434Z,17.42
2018-06-21T02:54:20.460Z,17.37
2018-06-21T02:55:20.487Z,17.46
2018-06-21T02:56:20.502Z,17.42
2018-06-21T02:57:20.532Z,17.38
2018-06-21T02:58:20.558Z,17.47
2018-06-21T02:59:20.564Z,17.38
2018-06-21T03:00:20.602Z,17.44
2018-06-21T03:01:20.620Z,17.47
2018-06-21T03:02:20.635Z,17.44
2018-06-21T03:03:20.661Z,17.46
2018-06-21T03:04:20.687Z,17.39
2018-06-21T03:05:20.708Z,17.44
2018-06-21T03:06:20.722Z,17.41
2018-06-21T03:07:20.753Z,17.42
2018-06-21T03:08:20.788Z,17.44
2018-06-21T03:09:20.785Z,17.38
2018-06-21T03:10:20.811Z,17.46
2018-06-21T03:11:20.841Z,17.44
2018-06-21T03:12:20.865Z,17.42
2018-06-21T03:13:20.881Z,17.46
2018-06-21T03:14:20.909Z,17.37
2018-06-21T03:15:20.930Z,17.50
2018-06-21T03:16:20.945Z,17.42
2018-06-21T03:17:20.974Z,17.38
2018-06-21T03:18:21.001Z,17.44
2018-06-21T03:19:21.024Z,17.39
2018-06-21T03:20:21.039Z,17.44
2018-06-21T03:21:21.058Z,17.42
2018-06-21T03:22:21.085Z,17.44
2018-06-21T03:23:21.106Z,17.42
2018-06-21T03:24:21.135Z,17.44
2018-06-21T03:25:21.153Z,17.39
2018-06-21T03:26:21.166Z,17.42
2018-06-21T03:27:21.190Z,17.38
2018-06-21T03:28:21.215Z,17.41
2018-06-21T03:29:21.246Z,17.42
2018-06-21T03:30:21.261Z,17.42
2018-06-21T03:31:21.281Z,17.42
2018-06-21T03:32:21.307Z,17.46
2018-06-21T03:33:21.337Z,17.44
2018-06-21T03:34:21.350Z,17.47
2018-06-21T03:35:21.383Z,17.44
2018-06-21T03:36:21.403Z,17.41
2018-06-21T03:37:21.413Z,17.42
2018-06-21T03:38:21.440Z,17.39
2018-06-21T03:39:21.468Z,17.39
2018-06-21T03:40:21.481Z,17.44
2018-06-21T03:41:21.502Z,17.46
2018-06-21T03:42:21.528Z,17.47
2018-06-21T03:43:21.556Z,17.44
2018-06-21T03:44:21.571Z,17.42
2018-06-21T03:45:21.601Z,17.37
2018-06-21T03:46:21.628Z,17.42
2018-06-21T03:47:21.635Z,17.42
2018-06-21T03:48:21.662Z,17.41
2018-06-21T03:49:21.691Z,17.42
2018-06-21T03:50:21.717Z,17.39
2018-06-21T03:51:21.730Z,17.44
2018-06-21T03:52:21.765Z,17.53
2018-06-21T03:53:21.777Z,17.47
2018-06-21T03:54:21.789Z,17.46
2018-06-21T03:55:21.821Z,17.57
2018-06-21T03:56:21.848Z,17.59
2018-06-21T03:57:21.869Z,17.54
2018-06-21T03:58:21.884Z,17.53
2018-06-21T03:59:21.907Z,17.59
2018-06-21T04:00:21.933Z,17.56
2018-06-21T04:01:21.951Z,17.63
2018-06-21T04:02:21.976Z,17.54
2018-06-21T04:03:22.015Z,17.56
2018-06-21T04:04:22.027Z,17.63
2018-06-21T04:05:22.074Z,17.56
2018-06-21T04:06:22.063Z,17.63
2018-06-21T04:07:22.096Z,17.56
2018-06-21T04:08:22.130Z,17.52
2018-06-21T04:09:22.135Z,17.54
2018-06-21T04:10:22.161Z,17.59
2018-06-21T04:11:22.180Z,17.68
2018-06-21T04:12:22.199Z,17.60
2018-06-21T04:13:22.224Z,17.60
2018-06-21T04:14:22.251Z,17.78
2018-06-21T04:15:22.277Z,17.69
2018-06-21T04:16:22.305Z,17.76
2018-06-21T04:17:22.347Z,17.80
2018-06-21T04:18:22.340Z,17.80
2018-06-21T04:19:22.358Z,17.88
2018-06-21T04:20:22.384Z,17.86
2018-06-21T04:21:22.408Z,17.91
2018-06-21T04:22:22.431Z,17.91
2018-06-21T04:23:22.449Z,17.91
2018-06-21T04:24:22.467Z,17.94
2018-06-21T04:25:22.498Z,17.97
2018-06-21T04:26:22.523Z,17.97
2018-06-21T04:27:22.535Z,18.02
2018-06-21T04:28:22.561Z,18.02
2018-06-21T04:29:22.593Z,18.03
2018-06-21T04:30:22.618Z,18.11
2018-06-21T04:31:22.628Z,18.15
2018-06-21T04:32:22.659Z,18.11
2018-06-21T04:33:22.675Z,18.21
2018-06-21T04:34:22.703Z,18.28
2018-06-21T04:35:22.720Z,18.27
2018-06-21T04:36:22.745Z,18.15
2018-06-21T04:37:22.769Z,18.28
2018-06-21T04:38:22.794Z,18.24
2018-06-21T04:39:22.808Z,18.28
2018-06-21T04:40:22.834Z,18.39
2018-06-21T04:41:22.868Z,18.36
2018-06-21T04:42:22.891Z,18.41
2018-06-21T04:43:22.898Z,18.43
2018-06-21T04:44:22.927Z,18.55
2018-06-21T04:45:22.955Z,18.57
2018-06-21T04:46:22.987Z,18.55
2018-06-21T04:47:22.995Z,18.60
2018-06-21T04:48:23.020Z,18.61
2018-06-21T04:49:23.042Z,18.63
2018-06-21T04:50:23.069Z,18.67
2018-06-21T04:51:23.086Z,18.63
2018-06-21T04:52:23.114Z,18.81
2018-06-21T04:53:23.134Z,18.74
2018-06-21T04:54:23.160Z,18.82
2018-06-21T04:55:23.186Z,18.82
2018-06-21T04:56:23.199Z,18.92
2018-06-21T04:57:23.229Z,18.85
2018-06-21T04:58:23.265Z,18.94
2018-06-21T04:59:23.276Z,18.96
2018-06-21T05:00:23.303Z,18.97
2018-06-21T05:01:23.321Z,19.09
2018-06-21T05:02:23.346Z,19.07
2018-06-21T05:03:23.371Z,19.05
2018-06-21T05:04:23.397Z,19.16
2018-06-21T05:05:23.419Z,19.16
2018-06-21T05:06:23.436Z,19.22
2018-06-21T05:07:23.464Z,19.27
2018-06-21T05:08:23.492Z,19.35
2018-06-21T05:09:23.511Z,19.35
2018-06-21T05:10:23.528Z,19.39
2018-06-21T05:11:23.552Z,19.38
2018-06-21T05:12:23.577Z,19.52
2018-06-21T05:13:23.605Z,19.49
2018-06-21T05:14:23.631Z,19.53
2018-06-21T05:15:23.643Z,19.62
2018-06-21T05:16:23.668Z,19.79
2018-06-21T05:17:23.697Z,19.67
2018-06-21T05:18:23.723Z,19.89
2018-06-21T05:19:23.747Z,19.96
2018-06-21T05:20:23.774Z,20.02
2018-06-21T05:21:23.795Z,20.12
2018-06-21T05:22:23.809Z,20.12
2018-06-21T05:23:23.839Z,20.37
2018-06-21T05:24:23.866Z,20.48
2018-06-21T05:25:23.887Z,20.52
2018-06-21T05:26:23.913Z,20.67
2018-06-21T05:27:23.941Z,20.82
2018-06-21T05:28:23.967Z,21.04
2018-06-21T05:29:23.987Z,21.22
2018-06-21T05:30:24.024Z,21.41
2018-06-21T05:31:24.030Z,21.66
2018-06-21T05:32:24.055Z,21.88
2018-06-21T05:33:24.085Z,22.07
2018-06-21T05:34:24.111Z,22.23
2018-06-21T05:35:24.139Z,22.33
2018-06-21T05:36:24.165Z,22.51
2018-06-21T05:37:24.246Z,22.59
2018-06-21T05:38:24.213Z,22.59
2018-06-21T05:39:24.244Z,22.68
2018-06-21T05:40:24.269Z,22.80
2018-06-21T05:41:24.291Z,22.81
2018-06-21T05:42:24.331Z,22.92
2018-06-21T05:43:24.341Z,22.96
2018-06-21T05:44:24.394Z,22.95
2018-06-21T05:45:24.397Z,23.01
2018-06-21T05:46:24.423Z,23.04
2018-06-21T05:47:24.449Z,23.01
2018-06-21T05:48:24.487Z,23.06
2018-06-21T05:49:24.529Z,23.06
2018-06-21T05:50:24.541Z,23.14
2018-06-21T05:51:24.566Z,23.16
2018-06-21T05:52:24.592Z,23.11
2018-06-21T05:53:24.613Z,23.14
2018-06-21T05:54:24.639Z,23.16
2018-06-21T05:55:24.669Z,23.17
2018-06-21T05:56:24.694Z,23.25
2018-06-21T05:57:24.717Z,23.21
2018-06-21T05:58:24.750Z,23.17
2018-06-21T05:59:24.772Z,23.23
2018-06-21T06:00:24.798Z,23.37
2018-06-21T06:01:24.826Z,23.39
2018-06-21T06:02:24.853Z,23.39
2018-06-21T06:03:24.873Z,23.44
2018-06-21T06:04:24.902Z,23.48
2018-06-21T06:05:24.931Z,23.51
2018-06-21T06:06:24.955Z,23.54
2018-06-21T06:07:24.982Z,23.55
2018-06-21T06:08:25.011Z,23.64
2018-06-21T06:09:25.043Z,23.64
2018-06-21T06:10:25.069Z,23.74
2018-06-21T06:11:25.108Z,23.77
2018-06-21T06:12:25.122Z,23.79
2018-06-21T06:13:25.144Z,23.81
2018-06-21T06:14:25.169Z,23.88
2018-06-21T06:15:25.198Z,23.94
2018-06-21T06:16:25.224Z,23.95
2018-06-21T06:17:25.271Z,24.04
2018-06-21T06:18:25.279Z,24.10
2018-06-21T06:19:25.299Z,24.04
2018-06-21T06:20:25.339Z,24.10
2018-06-21T06:21:25.357Z,24.09
2018-06-21T06:22:25.396Z,24.18
2018-06-21T06:23:25.426Z,24.22
2018-06-21T06:24:25.450Z,24.28
2018-06-21T06:25:25.469Z,24.32
2018-06-21T06:26:25.496Z,24.44
2018-06-21T06:27:25.525Z,24.46
2018-06-21T06:28:25.551Z,24.56
2018-06-21T06:29:25.574Z,24.50
2018-06-21T06:30:25.612Z,24.50
2018-06-21T06:31:25.635Z,24.59
2018-06-21T06:32:25.661Z,24.61
2018-06-21T06:33:25.693Z,24.58
2018-06-21T06:34:25.719Z,24.74
2018-06-21T06:35:25.741Z,24.69
2018-06-21T06:36:25.770Z,24.74
2018-06-21T06:37:25.798Z,24.81
2018-06-21T06:38:25.837Z,24.74
2018-06-21T06:39:25.864Z,24.75
2018-06-21T06:40:25.912Z,24.68
2018-06-21T06:41:25.908Z,24.82
2018-06-21T06:42:25.934Z,24.77
2018-06-21T06:43:25.964Z,24.86
2018-06-21T06:44:25.990Z,24.89
2018-06-21T06:45:26.025Z,24.81
2018-06-21T06:46:26.050Z,24.89
2018-06-21T06:47:26.078Z,24.92
2018-06-21T06:48:26.104Z,24.88
2018-06-21T06:49:26.134Z,24.94
2018-06-21T06:50:26.160Z,24.89
2018-06-21T06:51:26.180Z,24.99
2018-06-21T06:52:26.206Z,25.06
2018-06-21T06:53:26.250Z,25.14
2018-06-21T06:54:26.317Z,25.22
2018-06-21T06:55:26.303Z,25.34
2018-06-21T06:56:26.329Z,25.40
2018-06-21T06:57:26.350Z,25.44
2018-06-21T06:58:26.387Z,25.52
2018-06-21T06:59:26.418Z,25.52
2018-06-21T07:00:26.446Z,25.56
2018-06-21T07:01:26.466Z,25.59
2018-06-21T07:02:26.491Z,25.59
2018-06-21T07:03:26.528Z,25.63
2018-06-21T07:04:26.555Z,25.74
2018-06-21T07:05:26.584Z,25.88
2018-06-21T07:06:26.612Z,25.89
2018-06-21T07:07:26.646Z,25.96
2018-06-21T07:08:26.699Z,26.07
2018-06-21T07:09:26.703Z,26.07
2018-06-21T07:10:26.731Z,26.24
2018-06-21T07:11:26.756Z,26.27
2018-06-21T07:12:26.792Z,26.23
2018-06-21T07:13:26.814Z,26.31
2018-06-21T07:14:26.857Z,26.27
2018-06-21T07:15:26.883Z,26.41
2018-06-21T07:16:26.922Z,26.48
2018-06-21T07:17:26.930Z,26.52
2018-06-21T07:18:26.957Z,26.51
2018-06-21T07:19:26.993Z,26.56
2018-06-21T07:20:27.068Z,26.59
2018-06-21T07:21:27.049Z,26.64
2018-06-21T07:22:27.077Z,26.70
2018-06-21T07:23:27.110Z,26.71
2018-06-21T07:24:27.137Z,26.74
2018-06-21T07:25:27.167Z,26.83
2018-06-21T07:26:27.194Z,26.91
2018-06-21T07:27:27.230Z,26.98
2018-06-21T07:28:27.303Z,27.08
2018-06-21T07:29:27.278Z,27.18
2018-06-21T07:30:27.334Z,27.25
2018-06-21T07:31:27.345Z,27.43
2018-06-21T07:32:27.371Z,27.47
2018-06-21T07:33:27.425Z,27.61
2018-06-21T07:34:27.433Z,27.71
2018-06-21T07:35:27.473Z,27.83
2018-06-21T07:36:27.498Z,28.00
2018-06-21T07:37:27.541Z,28.03
2018-06-21T07:38:27.567Z,28.12
2018-06-21T07:39:27.587Z,28.33
2018-06-21T07:40:27.624Z,28.37
2018-06-21T07:41:27.654Z,28.55
2018-06-21T07:42:27.694Z,28.65
2018-06-21T07:43:27.726Z,28.71
2018-06-21T07:44:27.759Z,28.78
2018-06-21T07:45:27.782Z,28.92
2018-06-21T07:46:27.821Z,29.03
2018-06-21T07:47:27.850Z,29.12
2018-06-21T07:48:27.888Z,29.31
2018-06-21T07:49:27.923Z,29.40
2018-06-21T07:50:27.949Z,29.55
2018-06-21T07:51:27.984Z,29.59
2018-06-21T07:52:28.025Z,29.83
2018-06-21T07:53:28.055Z,29.87
2018-06-21T07:54:28.091Z,30.08
2018-06-21T07:55:28.118Z,30.17
2018-06-21T07:56:28.155Z,30.32
2018-06-21T07:57:28.202Z,30.49
2018-06-21T07:58:28.235Z,30.63
2018-06-21T07:59:28.260Z,30.81
2018-06-21T08:00:28.297Z,30.92
2018-06-21T08:01:28.332Z,31.05
2018-06-21T08:02:28.369Z,31.00
2018-06-21T08:03:28.400Z,31.04
2018-06-21T08:04:28.438Z,31.18
2018-06-21T08:05:28.473Z,31.26
2018-06-21T08:06:28.512Z,31.26
2018-06-21T08:07:28.539Z,31.33
2018-06-21T08:08:28.578Z,31.37
2018-06-21T08:09:28.620Z,31.33
2018-06-21T08:10:28.659Z,31.36
2018-06-21T08:11:28.678Z,31.30
2018-06-21T08:12:28.717Z,31.39
2018-06-21T08:13:28.772Z,31.48
2018-06-21T08:14:28.785Z,31.45
2018-06-21T08:15:28.827Z,31.41
2018-06-21T08:16:28.865Z,31.48
2018-06-21T08:17:28.888Z,31.42
2018-06-21T08:18:28.925Z,31.30
2018-06-21T08:19:28.963Z,31.32
2018-06-21T08:20:29.003Z,31.29
2018-06-21T08:21:29.031Z,31.30
2018-06-21T08:22:29.069Z,31.26
2018-06-21T08:23:29.106Z,31.26
2018-06-21T08:24:29.133Z,31.23
2018-06-21T08:25:29.167Z,31.22
2018-06-21T08:26:29.193Z,31.20
2018-06-21T08:27:29.239Z,31.30
2018-06-21T08:28:29.275Z,31.20
2018-06-21T08:29:29.298Z,31.23
2018-06-21T08:30:29.336Z,31.26
2018-06-21T08:31:29.371Z,31.37
2018-06-21T08:32:29.397Z,31.30
2018-06-21T08:33:29.442Z,31.39
2018-06-21T08:34:29.492Z,31.45
2018-06-21T08:35:29.503Z,31.47
2018-06-21T08:36:29.539Z,31.36
2018-06-21T08:37:29.631Z,31.44
2018-06-21T08:38:29.619Z,31.36
2018-06-21T08:39:29.649Z,31.37
2018-06-21T08:40:29.686Z,31.51
2018-06-21T08:41:29.722Z,31.47
2018-06-21T08:42:29.761Z,31.55
2018-06-21T08:43:29.787Z,31.62
2018-06-21T08:44:29.825Z,31.54
2018-06-21T08:45:29.848Z,31.66
2018-06-21T08:46:29.885Z,31.72
2018-06-21T08:47:29.932Z,31.73
2018-06-21T08:48:29.964Z,31.73
2018-06-21T08:49:29.995Z,31.77
2018-06-21T08:50:30.033Z,31.69
2018-06-21T08:51:30.080Z,31.89
2018-06-21T08:52:30.094Z,31.82
2018-06-21T08:53:30.136Z,31.90
2018-06-21T08:54:30.175Z,32.02
2018-06-21T08:55:30.212Z,32.08
2018-06-21T08:56:30.237Z,32.15
2018-06-21T08:57:30.277Z,32.24
2018-06-21T08:58:30.388Z,32.35
2018-06-21T08:59:30.410Z,32.34
2018-06-21T09:00:30.382Z,32.46
2018-06-21T09:01:30.418Z,32.57
2018-06-21T09:02:30.452Z,32.61
2018-06-21T09:03:30.490Z,32.68
2018-06-21T09:04:30.527Z,32.54
2018-06-21T09:05:30.571Z,32.67
2018-06-21T09:06:30.596Z,32.71
2018-06-21T09:07:30.629Z,32.72
2018-06-21T09:08:30.670Z,32.78
2018-06-21T09:09:30.710Z,32.85
2018-06-21T09:10:30.750Z,32.85
2018-06-21T09:11:30.790Z,32.94
2018-06-21T09:12:30.828Z,32.97
2018-06-21T09:13:30.852Z,33.01
2018-06-21T09:14:30.889Z,32.98
2018-06-21T09:15:30.932Z,32.97
2018-06-21T09:16:30.968Z,33.03
2018-06-21T09:17:31.002Z,33.00
2018-06-21T09:18:31.040Z,33.00
2018-06-21T09:19:31.081Z,33.09
2018-06-21T09:20:31.121Z,33.05
2018-06-21T09:21:31.149Z,33.09
2018-06-21T09:22:31.188Z,33.12
2018-06-21T09:23:31.220Z,33.16
2018-06-21T09:24:31.259Z,33.16
2018-06-21T09:25:31.302Z,33.08
2018-06-21T09:26:31.343Z,33.04
2018-06-21T09:27:31.379Z,33.05
2018-06-21T09:28:31.420Z,33.12
2018-06-21T09:29:31.453Z,33.19
2018-06-21T09:30:31.492Z,33.23
2018-06-21T09:31:31.532Z,33.31
2018-06-21T09:32:31.571Z,33.47
2018-06-21T09:33:31.605Z,33.48
2018-06-21T09:34:31.643Z,33.65
2018-06-21T09:35:31.683Z,33.65
2018-06-21T09:36:31.723Z,33.76
2018-06-21T09:37:31.765Z,33.84
2018-06-21T09:38:31.791Z,33.92
2018-06-21T09:39:31.838Z,34.00
2018-06-21T09:40:31.876Z,34.09
2018-06-21T09:41:31.918Z,33.98
2018-06-21T09:42:31.945Z,33.88
2018-06-21T09:43:31.992Z,33.97
2018-06-21T09:44:32.032Z,33.94
2018-06-21T09:45:32.065Z,33.81
2018-06-21T09:46:34.369Z,33.81
2018-06-21T09:47:32.137Z,33.66
2018-06-21T09:48:32.175Z,33.55
2018-06-21T09:49:32.210Z,33.50
2018-06-21T09:50:32.247Z,33.54
2018-06-21T09:51:32.285Z,33.44
2018-06-21T09:52:32.353Z,33.33
2018-06-21T09:53:32.367Z,33.26
2018-06-21T09:54:32.391Z,33.09
2018-06-21T09:55:32.425Z,33.15
2018-06-21T09:56:32.464Z,33.10
2018-06-21T09:57:32.513Z,33.00
2018-06-21T09:58:32.545Z,33.08
2018-06-21T09:59:32.574Z,33.04
2018-06-21T10:00:32.611Z,33.01
2018-06-21T10:01:32.645Z,33.15
2018-06-21T10:02:32.683Z,33.23
2018-06-21T10:03:32.724Z,33.26
2018-06-21T10:04:32.763Z,33.23
2018-06-21T10:05:32.785Z,33.29
2018-06-21T10:06:32.824Z,33.38
2018-06-21T10:07:32.863Z,33.35
2018-06-21T10:08:32.905Z,33.40
2018-06-21T10:09:32.944Z,33.42
2018-06-21T10:10:32.983Z,33.53
2018-06-21T10:11:33.017Z,33.55
2018-06-21T10:12:33.045Z,33.42
2018-06-21T10:13:33.086Z,33.53
2018-06-21T10:14:33.124Z,33.44
2018-06-21T10:15:33.161Z,33.53
2018-06-21T10:16:33.199Z,33.50
2018-06-21T10:17:33.233Z,33.47
2018-06-21T10:18:33.270Z,33.45
2018-06-21T10:19:33.316Z,33.33
2018-06-21T10:20:33.407Z,33.40
2018-06-21T10:21:33.376Z,33.39
2018-06-21T10:22:33.415Z,33.39
2018-06-21T10:23:33.451Z,33.42
2018-06-21T10:24:33.477Z,33.40
2018-06-21T10:25:33.521Z,33.44
2018-06-21T10:26:33.571Z,33.35
2018-06-21T10:27:33.598Z,33.35
2018-06-21T10:28:33.635Z,33.33
2018-06-21T10:29:33.656Z,33.33
2018-06-21T10:30:33.698Z,33.32
2018-06-21T10:31:33.734Z,33.20
2018-06-21T10:32:33.774Z,33.17
2018-06-21T10:33:33.816Z,33.03
2018-06-21T10:34:33.841Z,32.82
2018-06-21T10:35:33.875Z,32.66
2018-06-21T10:36:33.912Z,32.35
2018-06-21T10:37:33.956Z,31.92
2018-06-21T10:38:33.982Z,31.48
2018-06-21T10:39:34.021Z,30.89
2018-06-21T10:40:34.061Z,30.39
2018-06-21T10:41:34.084Z,29.92
2018-06-21T10:42:34.152Z,29.49
2018-06-21T10:43:34.149Z,28.83
2018-06-21T10:44:34.189Z,28.31
2018-06-21T10:45:34.211Z,27.57
2018-06-21T10:46:34.249Z,26.60
2018-06-21T10:47:34.289Z,26.19
2018-06-21T10:48:34.316Z,25.86
2018-06-21T10:49:34.340Z,25.52
2018-06-21T10:50:34.368Z,25.18
2018-06-21T10:51:34.403Z,24.94
2018-06-21T10:52:34.429Z,24.65
2018-06-21T10:53:34.458Z,24.34
2018-06-21T10:54:34.486Z,24.09
2018-06-21T10:55:34.525Z,23.74
2018-06-21T10:56:34.548Z,23.34
2018-06-21T10:57:34.570Z,22.77
2018-06-21T10:58:34.596Z,22.31
2018-06-21T10:59:34.626Z,21.78
2018-06-21T11:00:34.652Z,21.25
2018-06-21T11:01:34.688Z,20.63
2018-06-21T11:02:34.713Z,20.22
2018-06-21T11:03:34.740Z,19.84
2018-06-21T11:04:34.766Z,19.52
2018-06-21T11:05:34.795Z,19.29
2018-06-21T11:06:34.821Z,18.98
2018-06-21T11:07:34.829Z,18.81
2018-06-21T11:08:34.924Z,18.61
2018-06-21T11:09:34.884Z,18.49
2018-06-21T11:10:34.912Z,18.36
2018-06-21T11:11:34.939Z,18.30
2018-06-21T11:12:34.965Z,18.30
2018-06-21T11:13:34.986Z,18.31
2018-06-21T11:14:35.015Z,18.30
2018-06-21T11:15:35.043Z,18.19
2018-06-21T11:16:35.077Z,18.37
2018-06-21T11:17:35.090Z,18.24
2018-06-21T11:18:35.117Z,18.21
2018-06-21T11:19:35.127Z,18.21
2018-06-21T11:20:35.166Z,18.30
2018-06-21T11:21:35.185Z,18.21
2018-06-21T11:22:35.210Z,18.11
2018-06-21T11:23:35.233Z,18.15
2018-06-21T11:24:35.258Z,18.09
2018-06-21T11:25:35.290Z,18.16
2018-06-21T11:26:35.316Z,18.16
2018-06-21T11:27:35.363Z,18.26
2018-06-21T11:28:35.365Z,18.21
2018-06-21T11:29:35.386Z,18.33
2018-06-21T11:30:35.412Z,18.37
2018-06-21T11:31:35.458Z,18.42
2018-06-21T11:32:35.470Z,18.48
2018-06-21T11:33:35.491Z,18.45
2018-06-21T11:34:35.517Z,18.41
2018-06-21T11:35:35.530Z,18.33
2018-06-21T11:36:35.556Z,18.27
2018-06-21T11:37:35.586Z,18.42
2018-06-21T11:38:35.611Z,18.52
2018-06-21T11:39:35.637Z,18.67
2018-06-21T11:40:35.662Z,18.91
2018-06-21T11:41:35.691Z,19.12
2018-06-21T11:42:35.718Z,19.34
2018-06-21T11:43:35.741Z,19.55
2018-06-21T11:44:35.767Z,19.67
2018-06-21T11:45:35.800Z,19.78
2018-06-21T11:46:35.839Z,20.00
2018-06-21T11:47:35.860Z,20.21
2018-06-21T11:48:35.883Z,20.21
2018-06-21T11:49:35.904Z,20.29
2018-06-21T11:50:35.930Z,20.19
2018-06-21T11:51:35.959Z,20.15
2018-06-21T11:52:35.997Z,20.02
2018-06-21T11:53:36.030Z,19.97
2018-06-21T11:54:36.054Z,19.81
2018-06-21T11:55:36.075Z,19.81
2018-06-21T11:56:36.102Z,19.70
2018-06-21T11:57:36.133Z,19.60
2018-06-21T11:58:36.156Z,19.39
2018-06-21T11:59:36.199Z,19.27
2018-06-21T12:00:36.223Z,19.07
2018-06-21T12:01:36.243Z,18.92
2018-06-21T12:02:36.272Z,18.63
2018-06-21T12:03:36.299Z,18.48
2018-06-21T12:04:36.325Z,18.19
2018-06-21T12:05:36.348Z,18.12
2018-06-21T12:06:36.386Z,17.87
2018-06-21T12:07:36.398Z,17.72
2018-06-21T12:08:36.465Z,17.59
2018-06-21T12:09:36.452Z,17.50
2018-06-21T12:10:36.468Z,17.31
2018-06-21T12:11:36.491Z,17.31
2018-06-21T12:12:36.518Z,17.14
2018-06-21T12:13:36.547Z,16.98
2018-06-21T12:14:36.572Z,16.84
2018-06-21T12:15:36.597Z,16.66
2018-06-21T12:16:36.636Z,16.43
2018-06-21T12:17:36.632Z,16.31
2018-06-21T12:18:36.658Z,16.28
2018-06-21T12:19:36.686Z,16.24
2018-06-21T12:20:36.745Z,16.16
2018-06-21T12:21:36.735Z,16.08
2018-06-21T12:22:36.749Z,16.02
2018-06-21T12:23:36.777Z,15.83
2018-06-21T12:24:36.804Z,15.73
2018-06-21T12:25:36.841Z,15.72
2018-06-21T12:26:36.846Z,15.66
2018-06-21T12:27:36.866Z,15.66
2018-06-21T12:28:36.903Z,15.57
2018-06-21T12:29:36.925Z,15.51
2018-06-21T12:30:36.936Z,15.37
2018-06-21T12:31:36.964Z,15.41
2018-06-21T12:32:36.991Z,15.35
2018-06-21T12:33:37.000Z,15.19
2018-06-21T12:34:37.024Z,15.27
2018-06-21T12:35:37.063Z,15.26
2018-06-21T12:36:37.076Z,15.08
2018-06-21T12:37:37.094Z,15.11
2018-06-21T12:38:37.120Z,15.05
2018-06-21T12:39:37.145Z,15.05
2018-06-21T12:40:37.157Z,15.05
2018-06-21T12:41:37.179Z,15.00
2018-06-21T12:42:37.204Z,14.94
2018-06-21T12:43:37.281Z,14.92
2018-06-21T12:44:37.252Z,14.89
2018-06-21T12:45:37.272Z,14.85
2018-06-21T12:46:37.285Z,14.77
2018-06-21T12:47:37.309Z,14.74
2018-06-21T12:48:37.336Z,14.67
2018-06-21T12:49:37.353Z,14.62
2018-06-21T12:50:37.380Z,14.59
2018-06-21T12:51:37.401Z,14.68
2018-06-21T12:52:37.415Z,14.70